sensor_id;sensor_type;location;lat;lon;timestamp;pressure;altitude;pressure_sealevel;temperature;humidity
44825;BME280;30542;47.928;2.138;2023-04-06T00:01:55;100655.97;;;18.78;46.22
44825;BME280;30542;47.928;2.138;2023-04-06T00:06:55;100657.63;;;18.79;46.14
44825;BME280;30542;47.928;2.138;2023-04-06T00:11:56;100670.38;;;18.77;46.14
44825;BME280;30542;47.928;2.138;2023-04-06T00:16:57;100656.50;;;18.75;46.13
44825;BME280;30542;47.928;2.138;2023-04-06T00:21:58;100654.06;;;18.73;46.36
44825;BME280;30542;47.928;2.138;2023-04-06T00:26:58;100649.78;;;18.72;46.44
44825;BME280;30542;47.928;2.138;2023-04-06T00:31:58;100635.06;;;18.70;46.14
44825;BME280;30542;47.928;2.138;2023-04-06T00:36:59;100636.09;;;18.69;46.60
44825;BME280;30542;47.928;2.138;2023-04-06T00:42:00;100644.59;;;18.66;46.55
44825;BME280;30542;47.928;2.138;2023-04-06T00:47:07;100637.63;;;18.64;46.70
44825;BME280;30542;47.928;2.138;2023-04-06T00:52:08;100629.09;;;18.62;46.56
44825;BME280;30542;47.928;2.138;2023-04-06T00:57:11;100623.75;;;18.62;46.67
44825;BME280;30542;47.928;2.138;2023-04-06T01:02:11;100608.50;;;18.58;46.25
44825;BME280;30542;47.928;2.138;2023-04-06T01:07:12;100618.91;;;18.59;46.67
44825;BME280;30542;47.928;2.138;2023-04-06T01:12:12;100617.53;;;18.57;46.43
44825;BME280;30542;47.928;2.138;2023-04-06T01:17:13;100598.84;;;18.57;46.64
44825;BME280;30542;47.928;2.138;2023-04-06T01:22:16;100604.44;;;18.55;46.30
44825;BME280;30542;47.928;2.138;2023-04-06T01:27:16;100593.78;;;18.55;46.60
44825;BME280;30542;47.928;2.138;2023-04-06T01:32:17;100592.16;;;18.54;46.61
44825;BME280;30542;47.928;2.138;2023-04-06T01:37:17;100589.50;;;18.54;46.24
44825;BME280;30542;47.928;2.138;2023-04-06T01:42:18;100594.03;;;18.54;46.05
44825;BME280;30542;47.928;2.138;2023-04-06T01:47:18;100591.59;;;18.52;46.28
44825;BME280;30542;47.928;2.138;2023-04-06T01:52:18;100590.25;;;18.50;46.25
44825;BME280;30542;47.928;2.138;2023-04-06T01:57:19;100580.59;;;18.49;46.54
44825;BME280;30542;47.928;2.138;2023-04-06T02:02:20;100588.59;;;18.49;46.34
44825;BME280;30542;47.928;2.138;2023-04-06T02:07:20;100579.00;;;18.48;46.59
44825;BME280;30542;47.928;2.138;2023-04-06T02:12:20;100577.94;;;18.49;46.58
44825;BME280;30542;47.928;2.138;2023-04-06T02:17:21;100572.13;;;18.52;46.36
44825;BME280;30542;47.928;2.138;2023-04-06T02:22:21;100565.41;;;18.49;46.47
44825;BME280;30542;47.928;2.138;2023-04-06T02:27:22;100561.13;;;18.48;46.09
44825;BME280;30542;47.928;2.138;2023-04-06T02:32:23;100561.63;;;18.45;46.67
44825;BME280;30542;47.928;2.138;2023-04-06T02:37:23;100559.47;;;18.42;46.23
44825;BME280;30542;47.928;2.138;2023-04-06T02:42:24;100559.69;;;18.41;46.31
44825;BME280;30542;47.928;2.138;2023-04-06T02:47:24;100558.91;;;18.40;46.48
44825;BME280;30542;47.928;2.138;2023-04-06T02:52:25;100556.00;;;18.42;46.47
44825;BME280;30542;47.928;2.138;2023-04-06T02:57:26;100553.06;;;18.43;46.75
44825;BME280;30542;47.928;2.138;2023-04-06T03:02:26;100537.69;;;18.50;46.49
44825;BME280;30542;47.928;2.138;2023-04-06T03:07:26;100544.22;;;18.59;46.51
44825;BME280;30542;47.928;2.138;2023-04-06T03:12:27;100530.66;;;18.66;46.10
44825;BME280;30542;47.928;2.138;2023-04-06T03:17:27;100533.19;;;18.73;46.27
44825;BME280;30542;47.928;2.138;2023-04-06T03:22:28;100546.09;;;18.81;46.20
44825;BME280;30542;47.928;2.138;2023-04-06T03:27:29;100533.84;;;18.85;45.80
44825;BME280;30542;47.928;2.138;2023-04-06T03:32:30;100540.78;;;18.86;46.03
44825;BME280;30542;47.928;2.138;2023-04-06T03:37:30;100531.75;;;18.87;45.55
44825;BME280;30542;47.928;2.138;2023-04-06T03:42:31;100526.41;;;18.87;45.55
44825;BME280;30542;47.928;2.138;2023-04-06T03:47:32;100532.56;;;18.87;46.04
44825;BME280;30542;47.928;2.138;2023-04-06T03:52:33;100529.31;;;18.85;45.94
44825;BME280;30542;47.928;2.138;2023-04-06T03:57:33;100533.31;;;18.83;45.74
44825;BME280;30542;47.928;2.138;2023-04-06T04:02:33;100531.94;;;18.80;45.72
44825;BME280;30542;47.928;2.138;2023-04-06T04:07:34;100531.63;;;18.77;45.67
44825;BME280;30542;47.928;2.138;2023-04-06T04:12:34;100542.56;;;18.75;45.80
44825;BME280;30542;47.928;2.138;2023-04-06T04:17:35;100547.31;;;18.73;45.76
44825;BME280;30542;47.928;2.138;2023-04-06T04:22:35;100554.53;;;18.73;45.61
44825;BME280;30542;47.928;2.138;2023-04-06T04:27:36;100562.78;;;18.71;46.22
44825;BME280;30542;47.928;2.138;2023-04-06T04:32:36;100555.59;;;18.72;46.37
44825;BME280;30542;47.928;2.138;2023-04-06T04:37:36;100565.19;;;18.73;45.88
44825;BME280;30542;47.928;2.138;2023-04-06T04:42:37;100560.94;;;18.72;45.77
44825;BME280;30542;47.928;2.138;2023-04-06T04:47:37;100562.53;;;18.73;45.68
44825;BME280;30542;47.928;2.138;2023-04-06T04:52:37;100567.38;;;18.76;45.55
44825;BME280;30542;47.928;2.138;2023-04-06T04:57:38;100564.72;;;18.76;45.39
44825;BME280;30542;47.928;2.138;2023-04-06T05:02:38;100567.38;;;18.76;45.61
44825;BME280;30542;47.928;2.138;2023-04-06T05:07:39;100554.03;;;18.76;45.36
44825;BME280;30542;47.928;2.138;2023-04-06T05:12:40;100558.81;;;18.74;45.92
44825;BME280;30542;47.928;2.138;2023-04-06T05:17:40;100542.78;;;18.74;45.29
44825;BME280;30542;47.928;2.138;2023-04-06T05:22:40;100558.81;;;18.74;45.39
44825;BME280;30542;47.928;2.138;2023-04-06T05:27:41;100565.25;;;18.78;45.74
44825;BME280;30542;47.928;2.138;2023-04-06T05:32:41;100546.78;;;18.71;45.77
44825;BME280;30542;47.928;2.138;2023-04-06T05:37:43;100565.13;;;18.68;45.51
44825;BME280;30542;47.928;2.138;2023-04-06T05:42:44;100562.19;;;18.69;45.58
44825;BME280;30542;47.928;2.138;2023-04-06T05:47:44;100559.78;;;18.68;45.98
44825;BME280;30542;47.928;2.138;2023-04-06T05:52:45;100552.00;;;18.66;46.14
44825;BME280;30542;47.928;2.138;2023-04-06T05:57:46;100559.31;;;18.71;45.85
44825;BME280;30542;47.928;2.138;2023-04-06T06:02:46;100565.78;;;18.75;45.86
44825;BME280;30542;47.928;2.138;2023-04-06T06:07:47;100567.38;;;18.76;46.15
44825;BME280;30542;47.928;2.138;2023-04-06T06:12:47;100578.84;;;18.76;46.41
44825;BME280;30542;47.928;2.138;2023-04-06T06:17:48;100578.06;;;18.76;46.56
44825;BME280;30542;47.928;2.138;2023-04-06T06:22:48;100584.44;;;18.75;46.78
44825;BME280;30542;47.928;2.138;2023-04-06T06:27:48;100593.81;;;18.77;47.83
44825;BME280;30542;47.928;2.138;2023-04-06T06:32:50;100594.59;;;18.78;48.43
44825;BME280;30542;47.928;2.138;2023-04-06T06:37:50;100595.19;;;18.80;48.66
44825;BME280;30542;47.928;2.138;2023-04-06T06:42:51;100592.75;;;18.78;48.82
44825;BME280;30542;47.928;2.138;2023-04-06T06:47:51;100589.22;;;18.73;48.98
44825;BME280;30542;47.928;2.138;2023-04-06T06:52:51;100596.41;;;18.72;49.01
44825;BME280;30542;47.928;2.138;2023-04-06T06:57:52;100599.63;;;18.74;48.93
44825;BME280;30542;47.928;2.138;2023-04-06T07:02:53;100603.34;;;18.73;49.15
44825;BME280;30542;47.928;2.138;2023-04-06T07:07:54;100599.63;;;18.74;48.91
44825;BME280;30542;47.928;2.138;2023-04-06T07:12:54;100595.66;;;18.77;48.78
44825;BME280;30542;47.928;2.138;2023-04-06T07:17:55;100595.66;;;18.77;48.65
44825;BME280;30542;47.928;2.138;2023-04-06T07:22:55;100590.06;;;18.78;48.47
44825;BME280;30542;47.928;2.138;2023-04-06T07:27:55;100612.75;;;18.76;48.77
44825;BME280;30542;47.928;2.138;2023-04-06T07:32:56;100599.63;;;18.74;48.65
44825;BME280;30542;47.928;2.138;2023-04-06T07:37:57;100596.72;;;18.76;48.06
44825;BME280;30542;47.928;2.138;2023-04-06T07:42:57;100608.22;;;18.76;48.04
44825;BME280;30542;47.928;2.138;2023-04-06T07:47:58;100611.69;;;18.77;48.69
44825;BME280;30542;47.928;2.138;2023-04-06T07:52:58;100618.13;;;18.81;49.41
44825;BME280;30542;47.928;2.138;2023-04-06T07:57:59;100611.69;;;18.77;49.83
44825;BME280;30542;47.928;2.138;2023-04-06T08:03:00;100621.06;;;18.79;50.78
44825;BME280;30542;47.928;2.138;2023-04-06T08:08:00;100624.53;;;18.80;50.87
44825;BME280;30542;47.928;2.138;2023-04-06T08:13:00;100621.06;;;18.79;51.70
44825;BME280;30542;47.928;2.138;2023-04-06T08:18:01;100623.41;;;18.76;52.03
44825;BME280;30542;47.928;2.138;2023-04-06T08:23:01;100625.03;;;18.77;51.98
44825;BME280;30542;47.928;2.138;2023-04-06T08:28:03;100622.94;;;18.79;52.03
44825;BME280;30542;47.928;2.138;2023-04-06T08:33:03;100615.94;;;18.78;52.04
44825;BME280;30542;47.928;2.138;2023-04-06T08:38:03;100621.88;;;18.80;51.94
44825;BME280;30542;47.928;2.138;2023-04-06T08:43:08;100621.88;;;18.80;51.79
44825;BME280;30542;47.928;2.138;2023-04-06T08:48:11;100615.94;;;18.78;51.31
44825;BME280;30542;47.928;2.138;2023-04-06T08:53:12;100624.28;;;18.81;50.84
44825;BME280;30542;47.928;2.138;2023-04-06T08:58:12;100623.72;;;18.79;50.70
44825;BME280;30542;47.928;2.138;2023-04-06T09:03:14;100629.38;;;18.83;50.51
44825;BME280;30542;47.928;2.138;2023-04-06T09:08:15;100633.66;;;18.84;50.28
44825;BME280;30542;47.928;2.138;2023-04-06T09:13:16;100636.63;;;18.87;49.54
44825;BME280;30542;47.928;2.138;2023-04-06T09:18:30;100640.34;;;18.86;49.72
44825;BME280;30542;47.928;2.138;2023-04-06T09:23:31;100648.34;;;18.86;49.33
44825;BME280;30542;47.928;2.138;2023-04-06T09:28:54;100651.28;;;18.85;49.22
44825;BME280;30542;47.928;2.138;2023-04-06T09:33:56;100644.34;;;18.84;49.39
44825;BME280;30542;47.928;2.138;2023-04-06T09:39:02;100637.94;;;18.85;49.13
44825;BME280;30542;47.928;2.138;2023-04-06T09:44:10;100637.13;;;18.84;48.49
44825;BME280;30542;47.928;2.138;2023-04-06T09:49:11;100645.41;;;18.83;48.73
44825;BME280;30542;47.928;2.138;2023-04-06T09:54:15;100655.25;;;18.82;48.90
44825;BME280;30542;47.928;2.138;2023-04-06T09:59:24;100653.63;;;18.81;49.04
44825;BME280;30542;47.928;2.138;2023-04-06T10:09:38;100666.16;;;18.81;48.54
44825;BME280;30542;47.928;2.138;2023-04-06T10:14:39;100662.13;;;18.78;48.76
44825;BME280;30542;47.928;2.138;2023-04-06T10:19:55;100664.56;;;18.80;48.79
44825;BME280;30542;47.928;2.138;2023-04-06T10:24:58;100669.09;;;18.79;48.28
44825;BME280;30542;47.928;2.138;2023-04-06T10:30:06;100680.56;;;18.80;48.41
44825;BME280;30542;47.928;2.138;2023-04-06T10:35:11;100681.38;;;18.80;48.58
44825;BME280;30542;47.928;2.138;2023-04-06T10:40:24;100666.44;;;18.79;48.49
44825;BME280;30542;47.928;2.138;2023-04-06T10:45:26;100665.69;;;18.84;48.63
44825;BME280;30542;47.928;2.138;2023-04-06T10:50:29;100663.34;;;18.87;48.12
44825;BME280;30542;47.928;2.138;2023-04-06T10:55:30;100665.47;;;18.91;48.43
44825;BME280;30542;47.928;2.138;2023-04-06T11:00:31;100675.34;;;18.90;48.38
44825;BME280;30542;47.928;2.138;2023-04-06T11:05:31;100678.78;;;18.85;48.42
44825;BME280;30542;47.928;2.138;2023-04-06T11:10:32;100686.84;;;18.91;48.41
44825;BME280;30542;47.928;2.138;2023-04-06T11:15:35;100676.16;;;18.91;48.24
44825;BME280;30542;47.928;2.138;2023-04-06T11:20:36;100674.00;;;18.87;48.03
44825;BME280;30542;47.928;2.138;2023-04-06T11:25:36;100673.69;;;18.84;48.29
44825;BME280;30542;47.928;2.138;2023-04-06T11:30:36;100672.88;;;18.83;48.39
44825;BME280;30542;47.928;2.138;2023-04-06T11:35:37;100664.63;;;18.85;48.27
44825;BME280;30542;47.928;2.138;2023-04-06T11:40:37;100654.75;;;18.85;48.14
44825;BME280;30542;47.928;2.138;2023-04-06T11:45:42;100658.47;;;18.84;48.23
44825;BME280;30542;47.928;2.138;2023-04-06T11:50:46;100661.16;;;18.84;47.80
44825;BME280;30542;47.928;2.138;2023-04-06T11:55:47;100672.78;;;18.78;47.82
44825;BME280;30542;47.928;2.138;2023-04-06T12:00:48;100672.25;;;18.76;48.36
44825;BME280;30542;47.928;2.138;2023-04-06T12:05:48;100671.69;;;18.74;48.09
44825;BME280;30542;47.928;2.138;2023-04-06T12:10:49;100682.91;;;18.76;47.95
44825;BME280;30542;47.928;2.138;2023-04-06T12:15:49;100682.44;;;18.79;48.04
44825;BME280;30542;47.928;2.138;2023-04-06T12:20:51;100685.44;;;18.83;47.68
44825;BME280;30542;47.928;2.138;2023-04-06T12:25:52;100668.66;;;18.87;47.75
44825;BME280;30542;47.928;2.138;2023-04-06T12:30:53;100671.13;;;18.94;47.89
44825;BME280;30542;47.928;2.138;2023-04-06T12:35:55;100664.72;;;18.95;47.52
44825;BME280;30542;47.928;2.138;2023-04-06T12:40:56;100663.19;;;18.99;47.93
44825;BME280;30542;47.928;2.138;2023-04-06T12:45:57;100657.84;;;18.99;47.66
44825;BME280;30542;47.928;2.138;2023-04-06T12:50:58;100655.69;;;18.96;48.16
44825;BME280;30542;47.928;2.138;2023-04-06T12:55:59;100649.56;;;18.96;47.75
44825;BME280;30542;47.928;2.138;2023-04-06T13:01:00;100654.06;;;18.95;48.00
44825;BME280;30542;47.928;2.138;2023-04-06T13:06:06;100646.06;;;18.95;48.28
44825;BME280;30542;47.928;2.138;2023-04-06T13:11:06;100639.09;;;18.94;48.13
44825;BME280;30542;47.928;2.138;2023-04-06T13:16:09;100642.84;;;18.93;48.36
44825;BME280;30542;47.928;2.138;2023-04-06T13:21:13;100631.34;;;18.93;48.42
44825;BME280;30542;47.928;2.138;2023-04-06T13:26:15;100637.50;;;18.93;48.55
44825;BME280;30542;47.928;2.138;2023-04-06T13:31:16;100625.75;;;18.94;48.28
44825;BME280;30542;47.928;2.138;2023-04-06T13:36:17;100629.22;;;18.95;48.15
44825;BME280;30542;47.928;2.138;2023-04-06T13:41:22;100622.56;;;18.92;48.17
44825;BME280;30542;47.928;2.138;2023-04-06T13:46:23;100625.44;;;18.91;48.35
44825;BME280;30542;47.928;2.138;2023-04-06T13:51:24;100619.06;;;18.92;48.30
44825;BME280;30542;47.928;2.138;2023-04-06T13:56:24;100616.16;;;18.93;48.36
44825;BME280;30542;47.928;2.138;2023-04-06T14:01:25;100608.09;;;18.88;48.88
44825;BME280;30542;47.928;2.138;2023-04-06T14:06:26;100608.56;;;18.85;48.92
44825;BME280;30542;47.928;2.138;2023-04-06T14:11:27;100605.97;;;18.90;49.15
44825;BME280;30542;47.928;2.138;2023-04-06T14:16:27;100607.66;;;18.96;50.04
44825;BME280;30542;47.928;2.138;2023-04-06T14:21:28;100614.16;;;19.05;50.79
44825;BME280;30542;47.928;2.138;2023-04-06T14:26:28;100627.25;;;19.07;51.42
44825;BME280;30542;47.928;2.138;2023-04-06T14:31:28;100622.47;;;19.09;52.29
44825;BME280;30542;47.928;2.138;2023-04-06T14:36:32;100620.13;;;19.12;52.45
44825;BME280;30542;47.928;2.138;2023-04-06T14:41:36;100614.50;;;19.14;52.03
44825;BME280;30542;47.928;2.138;2023-04-06T14:46:36;100616.13;;;19.15;52.22
44825;BME280;30542;47.928;2.138;2023-04-06T14:51:37;100630.28;;;19.16;51.90
44825;BME280;30542;47.928;2.138;2023-04-06T14:56:37;100622.25;;;19.16;51.86
44825;BME280;30542;47.928;2.138;2023-04-06T15:01:38;100612.91;;;19.13;51.75
44825;BME280;30542;47.928;2.138;2023-04-06T15:06:39;100616.91;;;19.16;51.72
44825;BME280;30542;47.928;2.138;2023-04-06T15:11:39;100607.31;;;19.15;51.52
44825;BME280;30542;47.928;2.138;2023-04-06T15:16:39;100614.81;;;19.18;51.08
44825;BME280;30542;47.928;2.138;2023-04-06T15:21:40;100594.53;;;19.17;50.73
44825;BME280;30542;47.928;2.138;2023-04-06T15:26:41;100599.56;;;19.13;51.27
44825;BME280;30542;47.928;2.138;2023-04-06T15:31:41;100609.97;;;19.15;50.79
44825;BME280;30542;47.928;2.138;2023-04-06T15:36:41;100597.66;;;19.08;50.76
44825;BME280;30542;47.928;2.138;2023-04-06T15:41:43;100600.34;;;19.13;50.72
44825;BME280;30542;47.928;2.138;2023-04-06T15:46:43;100599.28;;;19.15;50.27
44825;BME280;30542;47.928;2.138;2023-04-06T15:51:46;100609.47;;;19.18;50.34
44825;BME280;30542;47.928;2.138;2023-04-06T15:56:47;100606.50;;;19.14;50.05
44825;BME280;30542;47.928;2.138;2023-04-06T16:01:48;100615.88;;;19.17;50.01
44825;BME280;30542;47.928;2.138;2023-04-06T16:06:48;100611.66;;;19.21;49.74
44825;BME280;30542;47.928;2.138;2023-04-06T16:11:49;100591.91;;;19.22;49.47
44825;BME280;30542;47.928;2.138;2023-04-06T16:16:50;100573.97;;;19.17;49.54
44825;BME280;30542;47.928;2.138;2023-04-06T16:21:50;100571.84;;;19.19;49.48
44825;BME280;30542;47.928;2.138;2023-04-06T16:26:51;100584.97;;;19.21;49.14
44825;BME280;30542;47.928;2.138;2023-04-06T16:31:51;100582.03;;;19.22;48.99
44825;BME280;30542;47.928;2.138;2023-04-06T16:36:51;100572.16;;;19.23;49.50
44825;BME280;30542;47.928;2.138;2023-04-06T16:41:52;100564.63;;;19.20;49.34
44825;BME280;30542;47.928;2.138;2023-04-06T16:46:52;100568.38;;;19.19;49.30
44825;BME280;30542;47.928;2.138;2023-04-06T16:51:52;100565.97;;;19.17;49.28
44825;BME280;30542;47.928;2.138;2023-04-06T16:56:53;100580.09;;;19.18;49.06
44825;BME280;30542;47.928;2.138;2023-04-06T17:01:53;100569.69;;;19.16;49.04
44825;BME280;30542;47.928;2.138;2023-04-06T17:06:54;100567.28;;;19.20;49.02
44825;BME280;30542;47.928;2.138;2023-04-06T17:11:54;100575.53;;;19.13;49.05
44825;BME280;30542;47.928;2.138;2023-04-06T17:16:55;100568.06;;;19.15;49.33
44825;BME280;30542;47.928;2.138;2023-04-06T17:21:56;100565.38;;;19.15;49.41
44825;BME280;30542;47.928;2.138;2023-04-06T17:26:56;100559.75;;;19.11;49.02
44825;BME280;30542;47.928;2.138;2023-04-06T17:31:56;100560.31;;;19.13;49.69
44825;BME280;30542;47.928;2.138;2023-04-06T17:36:57;100552.03;;;19.15;49.18
44825;BME280;30542;47.928;2.138;2023-04-06T17:41:57;100554.72;;;19.15;49.45
44825;BME280;30542;47.928;2.138;2023-04-06T17:46:58;100560.03;;;19.15;49.22
44825;BME280;30542;47.928;2.138;2023-04-06T17:51:59;100547.75;;;19.14;49.41
44825;BME280;30542;47.928;2.138;2023-04-06T17:57:00;100549.63;;;19.13;49.63
44825;BME280;30542;47.928;2.138;2023-04-06T18:02:01;100551.72;;;19.11;49.69
44825;BME280;30542;47.928;2.138;2023-04-06T18:07:03;100551.19;;;19.09;49.85
44825;BME280;30542;47.928;2.138;2023-04-06T18:12:04;100537.22;;;19.02;50.00
44825;BME280;30542;47.928;2.138;2023-04-06T18:17:04;100554.94;;;19.08;49.79
44825;BME280;30542;47.928;2.138;2023-04-06T18:22:05;100555.72;;;19.09;50.28
44825;BME280;30542;47.928;2.138;2023-04-06T18:27:05;100560.25;;;19.08;50.01
44825;BME280;30542;47.928;2.138;2023-04-06T18:32:06;100577.09;;;19.09;50.07
44825;BME280;30542;47.928;2.138;2023-04-06T18:37:06;100576.28;;;19.08;50.31
44825;BME280;30542;47.928;2.138;2023-04-06T18:42:07;100573.63;;;19.08;50.32
44825;BME280;30542;47.928;2.138;2023-04-06T18:47:07;100579.75;;;19.09;50.60
44825;BME280;30542;47.928;2.138;2023-04-06T18:52:07;100591.50;;;19.08;50.47
44825;BME280;30542;47.928;2.138;2023-04-06T18:57:07;100592.31;;;19.08;50.74
44825;BME280;30542;47.928;2.138;2023-04-06T19:02:09;100592.31;;;19.08;50.50
44825;BME280;30542;47.928;2.138;2023-04-06T19:07:13;100586.69;;;19.10;51.10
44825;BME280;30542;47.928;2.138;2023-04-06T19:12:13;100588.84;;;19.08;50.86
44825;BME280;30542;47.928;2.138;2023-04-06T19:17:13;100587.47;;;19.05;50.66
44825;BME280;30542;47.928;2.138;2023-04-06T19:22:14;100588.25;;;19.06;50.76
44825;BME280;30542;47.928;2.138;2023-04-06T19:27:16;100581.06;;;19.06;50.87
44825;BME280;30542;47.928;2.138;2023-04-06T19:32:17;100580.81;;;19.08;50.79
44825;BME280;30542;47.928;2.138;2023-04-06T19:37:17;100582.13;;;19.05;50.43
44825;BME280;30542;47.928;2.138;2023-04-06T19:42:18;100595.16;;;19.02;50.80
44825;BME280;30542;47.928;2.138;2023-04-06T19:47:22;100610.06;;;18.98;50.80
44825;BME280;30542;47.928;2.138;2023-04-06T19:52:22;100611.34;;;18.95;50.79
44825;BME280;30542;47.928;2.138;2023-04-06T19:57:22;100607.66;;;18.96;50.95
44825;BME280;30542;47.928;2.138;2023-04-06T20:02:24;100606.00;;;18.95;50.76
44825;BME280;30542;47.928;2.138;2023-04-06T20:07:25;100591.06;;;18.94;50.64
44825;BME280;30542;47.928;2.138;2023-04-06T20:12:25;100585.72;;;18.94;50.85
44825;BME280;30542;47.928;2.138;2023-04-06T20:17:25;100582.50;;;18.92;50.66
44825;BME280;30542;47.928;2.138;2023-04-06T20:22:26;100590.25;;;18.94;50.65
44825;BME280;30542;47.928;2.138;2023-04-06T20:27:26;100589.19;;;18.95;50.56
44825;BME280;30542;47.928;2.138;2023-04-06T20:32:26;100584.44;;;18.97;50.08
44825;BME280;30542;47.928;2.138;2023-04-06T20:37:27;100588.44;;;18.99;50.60
44825;BME280;30542;47.928;2.138;2023-04-06T20:42:27;100590.88;;;19.01;50.45
44825;BME280;30542;47.928;2.138;2023-04-06T20:47:27;100587.72;;;19.04;50.79
44825;BME280;30542;47.928;2.138;2023-04-06T20:52:28;100592.22;;;19.03;50.78
44825;BME280;30542;47.928;2.138;2023-04-06T20:57:28;100594.09;;;19.03;50.54
44825;BME280;30542;47.928;2.138;2023-04-06T21:02:29;100590.63;;;19.02;50.37
44825;BME280;30542;47.928;2.138;2023-04-06T21:07:29;100589.00;;;19.01;50.44
44825;BME280;30542;47.928;2.138;2023-04-06T21:12:29;100579.13;;;19.02;50.20
44825;BME280;30542;47.928;2.138;2023-04-06T21:17:30;100584.22;;;19.03;50.51
44825;BME280;30542;47.928;2.138;2023-04-06T21:22:31;100583.41;;;19.03;50.21
44825;BME280;30542;47.928;2.138;2023-04-06T21:27:31;100593.28;;;19.02;50.33
44825;BME280;30542;47.928;2.138;2023-04-06T21:32:31;100594.34;;;19.01;49.90
44825;BME280;30542;47.928;2.138;2023-04-06T21:37:32;100598.88;;;19.01;50.10
44825;BME280;30542;47.928;2.138;2023-04-06T21:42:32;100593.78;;;18.99;49.93
44825;BME280;30542;47.928;2.138;2023-04-06T21:47:33;100585.78;;;18.99;50.02
44825;BME280;30542;47.928;2.138;2023-04-06T21:52:34;100591.13;;;18.99;50.07
44825;BME280;30542;47.928;2.138;2023-04-06T21:57:34;100587.91;;;18.97;49.81
44825;BME280;30542;47.928;2.138;2023-04-06T22:02:35;100579.91;;;18.97;50.36
44825;BME280;30542;47.928;2.138;2023-04-06T22:07:36;100578.28;;;18.96;49.78
44825;BME280;30542;47.928;2.138;2023-04-06T22:12:36;100591.06;;;18.94;50.14
44825;BME280;30542;47.928;2.138;2023-04-06T22:17:37;100584.59;;;18.90;50.27
44825;BME280;30542;47.928;2.138;2023-04-06T22:22:37;100587.28;;;18.90;50.01
44825;BME280;30542;47.928;2.138;2023-04-06T22:27:38;100590.16;;;18.83;50.06
44825;BME280;30542;47.928;2.138;2023-04-06T22:32:38;100591.00;;;18.89;50.25
44825;BME280;30542;47.928;2.138;2023-04-06T22:37:42;100590.47;;;18.87;50.07
44825;BME280;30542;47.928;2.138;2023-04-06T22:42:42;100585.69;;;18.89;50.15
44825;BME280;30542;47.928;2.138;2023-04-06T22:47:45;100592.03;;;18.83;50.18
44825;BME280;30542;47.928;2.138;2023-04-06T22:52:45;100584.81;;;18.83;50.29
44825;BME280;30542;47.928;2.138;2023-04-06T22:57:45;100581.34;;;18.83;50.00
44825;BME280;30542;47.928;2.138;2023-04-06T23:02:47;100584.25;;;18.81;49.84
44825;BME280;30542;47.928;2.138;2023-04-06T23:07:47;100589.03;;;18.79;49.90
44825;BME280;30542;47.928;2.138;2023-04-06T23:12:47;100586.59;;;18.78;50.03
44825;BME280;30542;47.928;2.138;2023-04-06T23:17:48;100586.59;;;18.78;49.79
44825;BME280;30542;47.928;2.138;2023-04-06T23:22:48;100591.94;;;18.78;49.67
44825;BME280;30542;47.928;2.138;2023-04-06T23:27:48;100592.75;;;18.78;49.62
44825;BME280;30542;47.928;2.138;2023-04-06T23:32:49;100598.34;;;18.77;49.55
44825;BME280;30542;47.928;2.138;2023-04-06T23:37:49;100602.06;;;18.76;49.73
44825;BME280;30542;47.928;2.138;2023-04-06T23:42:49;100611.13;;;18.75;49.96
44825;BME280;30542;47.928;2.138;2023-04-06T23:47:50;100602.28;;;18.74;49.71
44825;BME280;30542;47.928;2.138;2023-04-06T23:52:50;100585.47;;;18.74;49.79
44825;BME280;30542;47.928;2.138;2023-04-06T23:57:50;100576.94;;;18.72;49.52
